Data for 09/24/2007

Time Sea-Level Adjusted Pressure Absolute Pressure Temperature Relative Humidity Dew Point   
(mb) (inHg) (mb) (inHg) (C) (F) (%) (C) (F)
00:05 1019 30.09 848 25.04 1.7 35 96 1.1 33.9
00:10 1019 30.09 848 25.04 1.5 34.8 96 0.9 33.7
00:15 1019 30.09 848 25.04 1.5 34.7 96 0.9 33.7
00:20 1019 30.09 849 25.07 1.6 34.8 96 1 33.8
00:25 1019 30.09 849 25.07 1.8 35.2 95 1.1 34.1
00:30 1019 30.09 849 25.07 2.1 35.7 95 1.3 34.4
00:35 1019 30.09 849 25.07 2.3 36.1 94 1.3 34.4
00:40 1019 30.09 849 25.07 2.3 36.1 93 1.3 34.3
00:45 1019 30.09 849 25.07 2.2 36 93 1.2 34.2
00:50 1019 30.09 849 25.07 2.2 36 94 1.3 34.4
00:55 1020 30.12 849 25.07 2.3 36.1 94 1.4 34.6
01:00 1020 30.12 849 25.07 2.3 36.1 94 1.5 34.6
01:05 1020 30.12 849 25.07 2.2 35.9 95 1.4 34.5
01:10 1020 30.12 849 25.07 2.1 35.8 95 1.5 34.7
01:15 1020 30.12 849 25.07 2.2 35.9 95 1.5 34.7
01:20 1020 30.12 849 25.07 2.2 36 95 1.4 34.6
01:25 1020 30.12 849 25.07 2.3 36.2 92 1.1 34
01:30 1020 30.12 849 25.07 2.4 36.4 91 1.1 33.9
01:35 1020 30.12 849 25.07 2.4 36.4 90 0.9 33.7
01:40 1020 30.12 849 25.07 2.4 36.4 91 1.1 34
01:45 1020 30.12 849 25.07 2.4 36.3 90 0.9 33.6
01:50 1020 30.12 849 25.07 2.5 36.5 91 1.3 34.3
01:55 1020 30.12 849 25.07 2.7 36.9 88 0.9 33.6
02:00 1020 30.12 849 25.07 2.8 37 87 0.9 33.6
02:05 1020 30.12 849 25.07 2.8 37 89 1.2 34.1
02:10 1020 30.12 849 25.07 2.8 37 88 0.9 33.7
02:15 1020 30.12 849 25.07 2.8 37 88 1 33.7
02:20 1020 30.12 849 25.07 2.7 36.9 89 1 33.9
02:25 1020 30.12 849 25.07 2.5 36.5 89 0.8 33.5
02:30 1020 30.12 850 25.1 2.5 36.5 89 0.9 33.6
02:35 1020 30.12 850 25.1 2.5 36.5 89 0.9 33.7
02:40 1020 30.12 850 25.1 2.6 36.7 89 1 33.8
02:45 1020 30.12 850 25.1 2.6 36.8 89 1 33.9
02:50 1020 30.12 850 25.1 2.6 36.7 89 1 33.8
02:55 1020 30.12 850 25.1 2.6 36.7 89 0.9 33.7
03:00 1020 30.12 850 25.1 2.6 36.7 89 0.9 33.6
03:05 1020 30.12 850 25.1 2.7 36.8 88 0.9 33.7
03:10 1021 30.15 850 25.1 2.7 36.8 87 0.8 33.4
03:15 1021 30.15 850 25.1 2.7 36.8 89 1 33.8
03:20 1021 30.15 850 25.1 2.5 36.5 89 0.8 33.5
03:25 1021 30.15 850 25.1 2.5 36.5 89 0.9 33.5
03:30 1021 30.15 850 25.1 2.4 36.3 90 1 33.7
03:35 1021 30.15 850 25.1 2.4 36.3 89 0.8 33.4
03:40 1021 30.15 850 25.1 2.4 36.3 88 0.7 33.2
03:45 1021 30.15 850 25.1 2.4 36.3 90 0.8 33.5
03:50 1021 30.15 850 25.1 2.4 36.3 89 0.8 33.4
03:55 1021 30.15 850 25.1 2.4 36.3 89 0.8 33.4
04:00 1021 30.15 850 25.1 2.3 36.2 89 0.7 33.3
04:05 1021 30.15 850 25.1 2.3 36.1 89 0.7 33.3
04:10 1021 30.15 850 25.1 2.2 35.9 90 0.8 33.4
04:15 1021 30.15 850 25.1 2.1 35.8 91 0.8 33.4
04:20 1021 30.15 850 25.1 2 35.6 91 0.7 33.2
04:25 1021 30.15 850 25.1 1.9 35.5 91 0.7 33.2
04:30 1021 30.15 850 25.1 2 35.6 91 0.6 33.2
04:35 1021 30.15 850 25.1 2 35.6 91 0.7 33.2
04:40 1021 30.15 850 25.1 2 35.5 91 0.7 33.2
04:45 1021 30.15 850 25.1 2 35.6 91 0.6 33.1
04:50 1021 30.15 850 25.1 2 35.6 92 0.8 33.4
04:55 1021 30.15 850 25.1 2.1 35.8 89 0.5 33
05:00 1021 30.15 850 25.1 2.1 35.8 90 0.6 33.1
05:05 1021 30.15 850 25.1 2.1 35.8 90 0.6 33.1
05:10 1021 30.15 850 25.1 2.1 35.8 90 0.7 33.2
05:15 1021 30.15 850 25.1 2.1 35.7 90 0.6 33.1
05:20 1021 30.15 850 25.1 2.1 35.7 89 0.5 32.8
05:25 1021 30.15 851 25.13 2.1 35.8 90 0.7 33.3
05:30 1021 30.15 851 25.13 2.1 35.9 89 0.6 33
05:35 1021 30.15 851 25.13 2.1 35.8 90 0.7 33.2
05:40 1021 30.15 851 25.13 2.2 35.9 89 0.6 33.1
05:45 1021 30.15 851 25.13 2.1 35.8 90 0.6 33.1
05:50 1021 30.15 851 25.13 2.1 35.8 90 0.6 33
05:55 1021 30.15 851 25.13 2.3 36.1 88 0.5 32.9
06:00 1021 30.15 851 25.13 2.3 36.2 88 0.6 33.1
06:05 1021 30.15 851 25.13 2.4 36.2 88 0.6 33.1
06:10 1021 30.15 851 25.13 2.4 36.3 89 0.8 33.4
06:15 1021 30.15 851 25.13 2.3 36.1 90 0.8 33.4
06:20 1022 30.18 851 25.13 2.2 35.9 89 0.6 33
06:25 1022 30.18 851 25.13 2.1 35.8 90 0.6 33.1
06:30 1022 30.18 851 25.13 2.1 35.7 90 0.6 33.1
06:35 1022 30.18 851 25.13 2.1 35.8 89 0.5 32.9
06:40 1022 30.18 851 25.13 2.1 35.9 89 0.5 32.9
06:45 1022 30.18 851 25.13 2.1 35.8 88 0.4 32.6
06:50 1022 30.18 851 25.13 2.2 35.9 88 0.3 32.6
06:55 1022 30.18 851 25.13 2.2 35.9 87 0.3 32.5
07:00 1022 30.18 851 25.13 2.2 35.9 88 0.4 32.7
07:05 1022 30.18 851 25.13 2.3 36.2 88 0.6 33
07:10 1022 30.18 851 25.13 2.3 36.2 87 0.4 32.7
07:15 1022 30.18 851 25.13 2.2 36 87 0.3 32.6
07:20 1022 30.18 851 25.13 2.2 36 88 0.4 32.7
07:25 1022 30.18 851 25.13 2.2 35.9 88 0.4 32.8
07:30 1022 30.18 851 25.13 2.2 35.9 89 0.6 33
07:35 1022 30.18 851 25.13 2.3 36.1 88 0.4 32.8
07:40 1022 30.18 851 25.13 2.2 36 88 0.4 32.7
07:45 1022 30.18 851 25.13 2.3 36.2 87 0.4 32.7
07:50 1022 30.18 851 25.13 2.4 36.2 87 0.5 32.8
07:55 1022 30.18 851 25.13 2.4 36.2 87 0.4 32.8
08:00 1022 30.18 851 25.13 2.4 36.3 87 0.4 32.8
08:05 1022 30.18 851 25.13 2.5 36.5 87 0.6 33.1
08:10 1022 30.18 851 25.13 2.7 36.8 87 0.8 33.4
08:15 1022 30.18 851 25.13 2.6 36.7 87 0.6 33.1
08:20 1022 30.18 851 25.13 2.6 36.6 87 0.6 33.1
08:25 1022 30.18 851 25.13 2.7 36.8 87 0.7 33.3
08:30 1022 30.18 851 25.13 2.7 36.8 87 0.8 33.4
08:35 1022 30.18 851 25.13 2.8 37.1 85 0.6 33
08:40 1022 30.18 851 25.13 2.9 37.3 84 0.5 32.9
08:45 1022 30.18 851 25.13 2.9 37.2 84 0.5 33
08:50 1022 30.18 851 25.13 2.8 37 84 0.4 32.7
08:55 1022 30.18 851 25.13 2.7 36.9 86 0.6 33.1
09:00 1022 30.18 852 25.16 2.9 37.2 85 0.6 33.1
09:05 1022 30.18 852 25.16 3 37.4 83 0.4 32.8
09:10 1022 30.18 852 25.16 3 37.3 84 0.6 33.1
09:15 1022 30.18 852 25.16 3 37.4 85 0.7 33.2
09:20 1023 30.21 852 25.16 3.2 37.7 84 0.7 33.2
09:25 1023 30.21 852 25.16 3.2 37.7 85 0.9 33.6
09:30 1023 30.21 852 25.16 3.2 37.7 84 0.8 33.4
09:35 1023 30.21 852 25.16 3.3 37.9 83 0.6 33.1
09:40 1023 30.21 852 25.16 3.2 37.8 84 0.8 33.5
09:45 1023 30.21 852 25.16 3.4 38.1 82 0.7 33.2
09:50 1023 30.21 852 25.16 3.2 37.8 83 0.7 33.2
09:55 1023 30.21 852 25.16 3.3 38 84 0.9 33.6
10:00 1023 30.21 852 25.16 3.6 38.5 83 1 33.8
10:05 1023 30.21 852 25.16 3.6 38.6 84 1.2 34.1
10:10 1023 30.21 852 25.16 3.7 38.6 82 0.8 33.5
10:15 1023 30.21 852 25.16 4 39.1 81 1 33.9
10:20 1023 30.21 852 25.16 4.3 39.7 77 0.6 33.1
10:25 1023 30.21 852 25.16 4.3 39.7 78 0.8 33.4
10:30 1023 30.21 852 25.16 4.6 40.4 79 1.4 34.5
10:35 1023 30.21 852 25.16 4.9 40.8 77 1.2 34.2
10:40 1023 30.21 852 25.16 4.8 40.7 76 1 33.9
10:45 1023 30.21 852 25.16 4.9 40.8 76 1 33.9
10:50 1023 30.21 852 25.16 5 41 75 0.9 33.6
10:55 1023 30.21 852 25.16 5.1 41.2 74 0.9 33.6
11:00 1023 30.21 852 25.16 5.4 41.8 71 0.7 33.2
11:05 1023 30.21 852 25.16 5.4 41.7 71 0.5 33
11:10 1023 30.21 852 25.16 4.9 40.9 74 0.8 33.4
11:15 1023 30.21 852 25.16 5.4 41.8 73 1 33.7
11:20 1023 30.21 852 25.16 5.4 41.8 72 0.8 33.4
11:25 1023 30.21 852 25.16 5.3 41.6 72 0.7 33.3
11:30 1023 30.21 852 25.16 5.5 41.9 71 0.6 33.1
11:35 1023 30.21 852 25.16 5.7 42.2 67 0 32
11:40 1023 30.21 852 25.16 5.3 41.6 71 0.5 32.9
11:45 1023 30.21 852 25.16 5.4 41.8 70 0.5 32.9
11:50 1023 30.21 852 25.16 5.6 42 72 0.9 33.6
11:55 1023 30.21 852 25.16 5.6 42 71 0.7 33.3
12:00 1023 30.21 852 25.16 5.8 42.4 71 0.9 33.7
12:05 1023 30.21 852 25.16 5.9 42.6 70 0.9 33.6
12:10 1023 30.21 852 25.16 5.8 42.5 72 1.2 34.2
12:15 1023 30.21 852 25.16 5.8 42.5 72 1.1 34
12:20 1023 30.21 852 25.16 5.8 42.4 72 1.1 33.9
12:25 1023 30.21 852 25.16 5.7 42.3 71 0.9 33.6
12:30 1023 30.21 852 25.16 6 42.8 69 0.9 33.6
12:35 1023 30.21 852 25.16 6.2 43.2 65 0.2 32.3
12:40 1023 30.21 852 25.16 6.4 43.5 66 0.4 32.8
12:45 1023 30.21 852 25.16 6.6 43.8 65 0.4 32.8
12:50 1023 30.21 852 25.16 6.8 44.3 66 0.9 33.6
12:55 1023 30.21 852 25.16 6.8 44.2 65 0.7 33.2
13:00 1023 30.21 852 25.16 6.9 44.4 66 1 33.8
13:05 1023 30.21 852 25.16 6.6 43.9 68 1 33.9
13:10 1023 30.21 852 25.16 7 44.6 62 0.3 32.5
13:15 1023 30.21 852 25.16 7.2 44.9 61 0.3 32.5
13:20 1023 30.21 852 25.16 7.1 44.8 62 0.3 32.5
13:25 1023 30.21 852 25.16 6.5 43.7 63 -0.1 31.8
13:30 1023 30.21 852 25.16 6.3 43.4 59 -1.2 29.9
13:35 1023 30.21 852 25.16 6.3 43.3 59 -1.1 30.1
13:40 1023 30.21 852 25.16 6.7 44.1 62 0 32
13:45 1023 30.21 852 25.16 6.7 44 61 -0.3 31.4
13:50 1023 30.21 852 25.16 6.5 43.7 62 -0.2 31.6
13:55 1023 30.21 852 25.16 6.5 43.8 63 0.1 32.1
14:00 1023 30.21 852 25.16 6.8 44.2 60 -0.5 31.1
14:05 1023 30.21 852 25.16 7.2 45 59 -0.1 31.7
14:10 1023 30.21 852 25.16 6.6 43.9 59 -0.7 30.7
14:15 1023 30.21 852 25.16 6.3 43.4 61 -0.5 31.1
14:20 1023 30.21 852 25.16 6.8 44.3 59 -0.5 31.1
14:25 1023 30.21 852 25.16 7.1 44.7 58 -0.7 30.7
14:30 1023 30.21 852 25.16 7 44.5 57 -1 30.2
14:35 1023 30.21 852 25.16 7.4 45.4 52 -1.7 29
14:40 1023 30.21 852 25.16 7.7 45.9 53 -1.2 29.9
14:45 1023 30.21 852 25.16 7.9 46.3 52 -1.2 29.9
14:50 1023 30.21 852 25.16 8.1 46.7 54 -0.6 30.8
14:55 1023 30.21 852 25.16 8.3 46.9 53 -0.8 30.5
15:00 1023 30.21 852 25.16 8.1 46.6 53 -0.8 30.6
15:05 1023 30.21 852 25.16 8.3 46.9 53 -0.7 30.7
15:10 1023 30.21 852 25.16 8.8 47.9 51 -0.8 30.6
15:15 1023 30.21 852 25.16 9.2 48.6 49 -0.8 30.5
15:20 1023 30.21 852 25.16 9.2 48.6 49 -0.9 30.3
15:25 1023 30.21 852 25.16 8.7 47.7 51 -0.7 30.7
15:30 1023 30.21 852 25.16 9.1 48.3 50 -0.8 30.6
15:35 1023 30.21 852 25.16 9 48.3 50 -0.9 30.3
15:40 1023 30.21 852 25.16 9.8 49.6 46 -1.1 30
15:45 1023 30.21 852 25.16 9.3 48.8 48 -1.1 30
15:50 1023 30.21 852 25.16 9.4 48.9 46 -1.7 29
15:55 1023 30.21 852 25.16 9.8 49.7 46 -1.3 29.6
16:00 1023 30.21 852 25.16 9.9 49.8 48 -0.7 30.7
16:05 1023 30.21 852 25.16 9.4 48.9 46 -1.6 29.1
16:10 1023 30.21 852 25.16 9.7 49.4 47 -1 30.3
16:15 1023 30.21 852 25.16 9.3 48.8 46 -1.8 28.8
16:20 1023 30.21 852 25.16 9.3 48.8 46 -1.8 28.8
16:25 1023 30.21 852 25.16 9.3 48.7 45 -2.1 28.2
16:30 1023 30.21 852 25.16 9.1 48.3 45 -2.3 27.9
16:35 1023 30.21 852 25.16 9.8 49.7 41 -2.7 27.2
16:40 1023 30.21 852 25.16 11.1 52 40 -2 28.3
16:45 1022 30.18 852 25.16 11.5 52.7 40 -1.5 29.3
16:50 1022 30.18 852 25.16 10.9 51.6 42 -1.4 29.4
16:55 1022 30.18 852 25.16 10.8 51.4 43 -1.3 29.6
17:00 1022 30.18 852 25.16 10.6 51.1 43 -1.3 29.6
17:05 1022 30.18 852 25.16 10.6 51.1 44 -1.2 29.9
17:10 1022 30.18 852 25.16 10.1 50.3 44 -1.5 29.3
17:15 1022 30.18 852 25.16 10.9 51.6 44 -1 30.2
17:20 1022 30.18 852 25.16 10.5 50.9 44 -1.3 29.7
17:25 1022 30.18 852 25.16 10.1 50.1 43 -2.1 28.3
17:30 1022 30.18 852 25.16 10.6 51.1 42 -1.8 28.8
17:35 1022 30.18 852 25.16 10.2 50.3 45 -1.2 29.9
17:40 1022 30.18 852 25.16 9.6 49.3 44 -1.9 28.5
17:45 1022 30.18 852 25.16 10.3 50.6 44 -1.4 29.5
17:50 1022 30.18 852 25.16 10.3 50.6 43 -1.7 28.9
17:55 1022 30.18 851 25.13 10.9 51.6 43 -1.3 29.7
18:00 1022 30.18 851 25.13 10.8 51.5 42 -1.4 29.5
18:05 1022 30.18 851 25.13 11 51.7 42 -1.4 29.4
18:10 1022 30.18 851 25.13 11.4 52.5 41 -1.3 29.6
18:15 1022 30.18 851 25.13 11.7 53 41 -1 30.2
18:20 1022 30.18 851 25.13 11.6 53 42 -0.9 30.5
18:25 1022 30.18 851 25.13 10.7 51.3 45 -0.6 30.8
18:30 1022 30.18 851 25.13 9.8 49.6 48 -0.7 30.7
18:35 1022 30.18 851 25.13 9.4 48.8 49 -0.7 30.7
18:40 1022 30.18 851 25.13 9 48.2 52 -0.4 31.3
18:45 1022 30.18 851 25.13 8.8 47.8 53 -0.3 31.4
18:50 1022 30.18 851 25.13 8.6 47.5 53 -0.3 31.4
18:55 1022 30.18 851 25.13 8.5 47.2 53 -0.4 31.3
19:00 1022 30.18 851 25.13 8.3 46.9 55 -0.1 31.8
19:05 1022 30.18 851 25.13 8.1 46.6 55 -0.4 31.3
19:10 1022 30.18 851 25.13 7.9 46.3 56 -0.3 31.5
19:15 1022 30.18 851 25.13 7.9 46.2 58 0.1 32.2
19:20 1022 30.18 851 25.13 7.9 46.3 56 -0.3 31.5
19:25 1022 30.18 851 25.13 7.9 46.2 59 0.4 32.8
19:30 1022 30.18 851 25.13 7.6 45.7 68 2 35.6
19:35 1022 30.18 851 25.13 7 44.5 71 2 35.6
19:40 1022 30.18 851 25.13 6.6 43.9 72 2 35.5
19:45 1022 30.18 851 25.13 6.3 43.4 73 1.8 35.3
19:50 1022 30.18 851 25.13 6.4 43.4 73 1.8 35.3
19:55 1022 30.18 852 25.16 6.5 43.7 72 1.9 35.4
20:00 1022 30.18 852 25.16 6.5 43.7 73 2 35.5
20:05 1022 30.18 852 25.16 6.2 43.1 75 2 35.7
20:10 1022 30.18 852 25.16 6 42.8 76 2 35.6
20:15 1022 30.18 852 25.16 6 42.7 76 2 35.6
20:20 1022 30.18 852 25.16 5.9 42.6 76 2 35.6
20:25 1022 30.18 852 25.16 5.9 42.6 76 1.9 35.4
20:30 1022 30.18 852 25.16 5.8 42.5 77 2.2 35.9
20:35 1023 30.21 852 25.16 5.7 42.3 79 2.4 36.4
20:40 1023 30.21 852 25.16 5.5 42 79 2.1 35.8
20:45 1022 30.18 852 25.16 5.5 41.9 77 1.8 35.3
20:50 1023 30.21 852 25.16 5.5 41.9 78 2 35.5
20:55 1023 30.21 852 25.16 5.5 42 77 1.7 35.1
21:00 1023 30.21 852 25.16 5.6 42.1 77 1.8 35.3
21:05 1023 30.21 852 25.16 5.5 41.9 78 1.9 35.5
21:10 1023 30.21 852 25.16 5.4 41.8 78 1.9 35.4
21:15 1023 30.21 852 25.16 5.4 41.7 79 2.1 35.7
21:20 1023 30.21 852 25.16 5.3 41.6 79 2 35.6
21:25 1023 30.21 852 25.16 5.3 41.6 78 1.7 35.1
21:30 1023 30.21 852 25.16 5.3 41.5 78 1.7 35.1
21:35 1023 30.21 852 25.16 5.2 41.4 79 1.9 35.3
21:40 1023 30.21 852 25.16 5.3 41.5 78 1.8 35.2
21:45 1023 30.21 852 25.16 5.3 41.5 79 1.9 35.4
21:50 1023 30.21 852 25.16 5.2 41.3 78 1.6 34.9
21:55 1023 30.21 852 25.16 5.1 41.3 78 1.6 35
22:00 1023 30.21 852 25.16 5.2 41.3 79 1.8 35.2
22:05 1023 30.21 852 25.16 5.1 41.3 77 1.5 34.7
22:10 1023 30.21 852 25.16 5.1 41.3 76 1.3 34.3
22:15 1023 30.21 852 25.16 5.2 41.4 75 1.2 34.2
22:20 1023 30.21 852 25.16 5.3 41.6 74 1.1 34
22:25 1023 30.21 852 25.16 5.4 41.7 75 1.3 34.4
22:30 1023 30.21 852 25.16 5.4 41.8 73 1.1 33.9
22:35 1023 30.21 852 25.16 5.5 41.8 75 1.3 34.4
22:40 1023 30.21 852 25.16 5.4 41.8 75 1.3 34.3
22:45 1023 30.21 852 25.16 5.5 41.8 75 1.4 34.5
22:50 1023 30.21 852 25.16 5.5 41.9 74 1.3 34.4
22:55 1023 30.21 852 25.16 5.6 42.1 74 1.3 34.3
23:00 1023 30.21 852 25.16 5.6 42.2 73 1.3 34.3
23:05 1023 30.21 852 25.16 5.6 42.1 75 1.5 34.8
23:10 1023 30.21 852 25.16 5.5 41.9 75 1.4 34.6
23:15 1023 30.21 852 25.16 5.4 41.7 75 1.3 34.4
23:20 1023 30.21 852 25.16 5.4 41.7 75 1.3 34.3
23:25 1023 30.21 852 25.16 5.5 41.8 75 1.3 34.4
23:30 1023 30.21 852 25.16 5.5 41.9 74 1.3 34.3
23:35 1023 30.21 852 25.16 5.6 42.1 74 1.2 34.2
23:40 1023 30.21 852 25.16 5.7 42.3 73 1.3 34.3
23:45 1023 30.21 852 25.16 5.7 42.3 73 1.3 34.4
23:50 1023 30.21 852 25.16 5.6 42.1 73 1.3 34.3
23:55 1023 30.21 852 25.16 5.6 42 73 1.1 33.9
24:00 1023 30.21 852 25.16 5.6 42 73 1.1 34.1